sensor_id;sensor_type;location;lat;lon;timestamp;P1;durP1;ratioP1;P2;durP2;ratioP2
40537;SDS011;27925;41.874;12.526;2023-05-08T00:00:38;6.22;;;4.32;;
40537;SDS011;27925;41.874;12.526;2023-05-08T00:03:04;8.35;;;5.20;;
40537;SDS011;27925;41.874;12.526;2023-05-08T00:05:30;6.65;;;4.32;;
40537;SDS011;27925;41.874;12.526;2023-05-08T00:07:56;9.55;;;4.88;;
40537;SDS011;27925;41.874;12.526;2023-05-08T00:10:28;10.65;;;5.03;;
40537;SDS011;27925;41.874;12.526;2023-05-08T00:12:54;7.45;;;5.40;;
40537;SDS011;27925;41.874;12.526;2023-05-08T00:15:20;8.68;;;5.35;;
40537;SDS011;27925;41.874;12.526;2023-05-08T00:17:46;8.75;;;5.40;;
40537;SDS011;27925;41.874;12.526;2023-05-08T00:20:12;8.70;;;5.10;;
40537;SDS011;27925;41.874;12.526;2023-05-08T00:22:38;7.57;;;5.57;;
40537;SDS011;27925;41.874;12.526;2023-05-08T00:25:04;8.18;;;5.25;;
40537;SDS011;27925;41.874;12.526;2023-05-08T00:27:30;7.15;;;5.50;;
40537;SDS011;27925;41.874;12.526;2023-05-08T00:29:56;6.93;;;5.30;;
40537;SDS011;27925;41.874;12.526;2023-05-08T00:32:22;8.85;;;5.68;;
40537;SDS011;27925;41.874;12.526;2023-05-08T00:34:48;8.48;;;6.10;;
40537;SDS011;27925;41.874;12.526;2023-05-08T00:37:14;7.85;;;5.85;;
40537;SDS011;27925;41.874;12.526;2023-05-08T00:39:40;9.27;;;5.70;;
40537;SDS011;27925;41.874;12.526;2023-05-08T00:42:06;7.60;;;5.88;;
40537;SDS011;27925;41.874;12.526;2023-05-08T00:44:31;8.30;;;5.70;;
40537;SDS011;27925;41.874;12.526;2023-05-08T00:46:57;6.85;;;4.72;;
40537;SDS011;27925;41.874;12.526;2023-05-08T00:49:23;10.30;;;5.43;;
40537;SDS011;27925;41.874;12.526;2023-05-08T00:51:50;7.75;;;5.30;;
40537;SDS011;27925;41.874;12.526;2023-05-08T00:54:18;8.95;;;5.30;;
40537;SDS011;27925;41.874;12.526;2023-05-08T00:56:44;7.68;;;4.93;;
40537;SDS011;27925;41.874;12.526;2023-05-08T00:59:12;10.02;;;5.15;;
40537;SDS011;27925;41.874;12.526;2023-05-08T01:01:40;8.18;;;5.25;;
40537;SDS011;27925;41.874;12.526;2023-05-08T01:04:07;7.55;;;4.90;;
40537;SDS011;27925;41.874;12.526;2023-05-08T01:06:33;7.70;;;5.40;;
40537;SDS011;27925;41.874;12.526;2023-05-08T01:09:00;7.88;;;5.35;;
40537;SDS011;27925;41.874;12.526;2023-05-08T01:11:36;7.18;;;5.07;;
40537;SDS011;27925;41.874;12.526;2023-05-08T01:17:23;9.07;;;5.35;;
40537;SDS011;27925;41.874;12.526;2023-05-08T01:23:01;7.65;;;5.47;;
40537;SDS011;27925;41.874;12.526;2023-05-08T01:33:45;8.10;;;5.57;;
40537;SDS011;27925;41.874;12.526;2023-05-08T01:36:57;8.63;;;5.70;;
40537;SDS011;27925;41.874;12.526;2023-05-08T01:42:21;9.05;;;5.95;;
40537;SDS011;27925;41.874;12.526;2023-05-08T01:44:58;7.90;;;5.85;;
40537;SDS011;27925;41.874;12.526;2023-05-08T01:47:27;8.45;;;6.28;;
40537;SDS011;27925;41.874;12.526;2023-05-08T01:50:02;8.25;;;5.80;;
40537;SDS011;27925;41.874;12.526;2023-05-08T01:52:34;9.77;;;5.50;;
40537;SDS011;27925;41.874;12.526;2023-05-08T01:55:08;9.00;;;5.85;;
40537;SDS011;27925;41.874;12.526;2023-05-08T01:57:37;9.48;;;5.72;;
40537;SDS011;27925;41.874;12.526;2023-05-08T02:00:07;9.70;;;5.88;;
40537;SDS011;27925;41.874;12.526;2023-05-08T02:02:34;9.25;;;5.85;;
40537;SDS011;27925;41.874;12.526;2023-05-08T02:05:03;9.18;;;6.38;;
40537;SDS011;27925;41.874;12.526;2023-05-08T02:07:31;8.63;;;5.70;;
40537;SDS011;27925;41.874;12.526;2023-05-08T02:10:02;12.27;;;6.65;;
40537;SDS011;27925;41.874;12.526;2023-05-08T02:12:29;11.70;;;6.68;;
40537;SDS011;27925;41.874;12.526;2023-05-08T02:14:56;10.13;;;6.22;;
40537;SDS011;27925;41.874;12.526;2023-05-08T02:17:24;8.88;;;6.07;;
40537;SDS011;27925;41.874;12.526;2023-05-08T02:19:53;9.25;;;6.10;;
40537;SDS011;27925;41.874;12.526;2023-05-08T02:22:20;9.23;;;6.70;;
40537;SDS011;27925;41.874;12.526;2023-05-08T02:24:48;10.30;;;6.35;;
40537;SDS011;27925;41.874;12.526;2023-05-08T02:27:19;8.98;;;6.18;;
40537;SDS011;27925;41.874;12.526;2023-05-08T02:29:46;10.85;;;6.47;;
40537;SDS011;27925;41.874;12.526;2023-05-08T02:32:15;9.10;;;6.38;;
40537;SDS011;27925;41.874;12.526;2023-05-08T02:34:43;8.90;;;5.55;;
40537;SDS011;27925;41.874;12.526;2023-05-08T02:37:09;8.38;;;5.63;;
40537;SDS011;27925;41.874;12.526;2023-05-08T02:39:35;8.50;;;5.90;;
40537;SDS011;27925;41.874;12.526;2023-05-08T02:42:03;8.82;;;5.68;;
40537;SDS011;27925;41.874;12.526;2023-05-08T02:44:29;9.30;;;5.90;;
40537;SDS011;27925;41.874;12.526;2023-05-08T02:46:56;8.93;;;6.32;;
40537;SDS011;27925;41.874;12.526;2023-05-08T02:49:32;8.05;;;6.25;;
40537;SDS011;27925;41.874;12.526;2023-05-08T02:52:17;10.57;;;6.72;;
40537;SDS011;27925;41.874;12.526;2023-05-08T02:57:49;11.43;;;6.53;;
40537;SDS011;27925;41.874;12.526;2023-05-08T03:00:34;8.27;;;6.30;;
40537;SDS011;27925;41.874;12.526;2023-05-08T03:03:08;9.50;;;5.63;;
40537;SDS011;27925;41.874;12.526;2023-05-08T03:05:42;12.32;;;6.00;;
40537;SDS011;27925;41.874;12.526;2023-05-08T03:08:14;8.68;;;6.30;;
40537;SDS011;27925;41.874;12.526;2023-05-08T03:10:42;8.80;;;6.38;;
40537;SDS011;27925;41.874;12.526;2023-05-08T03:13:13;8.13;;;6.38;;
40537;SDS011;27925;41.874;12.526;2023-05-08T03:15:41;9.98;;;6.88;;
40537;SDS011;27925;41.874;12.526;2023-05-08T03:18:18;10.57;;;6.28;;
40537;SDS011;27925;41.874;12.526;2023-05-08T03:20:48;13.30;;;6.70;;
40537;SDS011;27925;41.874;12.526;2023-05-08T03:23:18;10.35;;;6.35;;
40537;SDS011;27925;41.874;12.526;2023-05-08T03:25:45;14.85;;;7.40;;
40537;SDS011;27925;41.874;12.526;2023-05-08T03:28:12;10.77;;;6.82;;
40537;SDS011;27925;41.874;12.526;2023-05-08T03:30:39;10.00;;;7.00;;
40537;SDS011;27925;41.874;12.526;2023-05-08T03:33:06;11.65;;;7.22;;
40537;SDS011;27925;41.874;12.526;2023-05-08T03:35:36;11.30;;;7.68;;
40537;SDS011;27925;41.874;12.526;2023-05-08T03:38:06;11.95;;;6.78;;
40537;SDS011;27925;41.874;12.526;2023-05-08T03:40:33;9.15;;;6.40;;
40537;SDS011;27925;41.874;12.526;2023-05-08T03:43:08;11.93;;;7.07;;
40537;SDS011;27925;41.874;12.526;2023-05-08T03:45:36;10.85;;;7.28;;
40537;SDS011;27925;41.874;12.526;2023-05-08T03:48:03;11.27;;;7.93;;
40537;SDS011;27925;41.874;12.526;2023-05-08T03:50:30;10.15;;;6.60;;
40537;SDS011;27925;41.874;12.526;2023-05-08T03:52:59;12.35;;;6.75;;
40537;SDS011;27925;41.874;12.526;2023-05-08T03:55:25;11.52;;;6.57;;
40537;SDS011;27925;41.874;12.526;2023-05-08T04:06:05;9.35;;;6.45;;
40537;SDS011;27925;41.874;12.526;2023-05-08T04:08:52;11.30;;;6.35;;
40537;SDS011;27925;41.874;12.526;2023-05-08T04:14:31;10.50;;;6.83;;
40537;SDS011;27925;41.874;12.526;2023-05-08T04:17:02;10.77;;;5.97;;
40537;SDS011;27925;41.874;12.526;2023-05-08T04:19:32;15.95;;;6.50;;
40537;SDS011;27925;41.874;12.526;2023-05-08T04:22:04;11.20;;;7.15;;
40537;SDS011;27925;41.874;12.526;2023-05-08T04:24:32;11.57;;;5.90;;
40537;SDS011;27925;41.874;12.526;2023-05-08T04:27:01;9.85;;;6.88;;
40537;SDS011;27925;41.874;12.526;2023-05-08T04:29:28;9.70;;;5.80;;
40537;SDS011;27925;41.874;12.526;2023-05-08T04:31:55;10.20;;;6.20;;
40537;SDS011;27925;41.874;12.526;2023-05-08T04:34:21;12.88;;;6.25;;
40537;SDS011;27925;41.874;12.526;2023-05-08T04:36:47;11.10;;;6.05;;
40537;SDS011;27925;41.874;12.526;2023-05-08T04:39:13;9.27;;;6.07;;
40537;SDS011;27925;41.874;12.526;2023-05-08T04:41:39;11.35;;;6.18;;
40537;SDS011;27925;41.874;12.526;2023-05-08T04:44:05;10.93;;;6.50;;
40537;SDS011;27925;41.874;12.526;2023-05-08T04:46:30;13.15;;;7.30;;
40537;SDS011;27925;41.874;12.526;2023-05-08T04:48:56;10.07;;;6.90;;
40537;SDS011;27925;41.874;12.526;2023-05-08T04:51:22;13.73;;;7.18;;
40537;SDS011;27925;41.874;12.526;2023-05-08T04:53:47;13.38;;;7.38;;
40537;SDS011;27925;41.874;12.526;2023-05-08T04:56:13;13.32;;;6.97;;
40537;SDS011;27925;41.874;12.526;2023-05-08T04:58:39;14.45;;;6.93;;
40537;SDS011;27925;41.874;12.526;2023-05-08T05:01:04;9.65;;;7.05;;
40537;SDS011;27925;41.874;12.526;2023-05-08T07:40:59;16.67;;;10.10;;
40537;SDS011;27925;41.874;12.526;2023-05-08T07:43:26;18.27;;;10.52;;
40537;SDS011;27925;41.874;12.526;2023-05-08T07:45:51;14.73;;;9.88;;
40537;SDS011;27925;41.874;12.526;2023-05-08T07:48:17;15.80;;;10.05;;
40537;SDS011;27925;41.874;12.526;2023-05-08T07:50:43;16.83;;;9.70;;
40537;SDS011;27925;41.874;12.526;2023-05-08T07:53:09;14.23;;;10.32;;
40537;SDS011;27925;41.874;12.526;2023-05-08T07:55:35;18.75;;;10.43;;
40537;SDS011;27925;41.874;12.526;2023-05-08T07:58:01;15.80;;;10.10;;
40537;SDS011;27925;41.874;12.526;2023-05-08T08:00:26;18.10;;;9.70;;
40537;SDS011;27925;41.874;12.526;2023-05-08T08:02:53;17.40;;;10.48;;
40537;SDS011;27925;41.874;12.526;2023-05-08T08:05:19;16.80;;;9.38;;
40537;SDS011;27925;41.874;12.526;2023-05-08T08:07:45;14.63;;;9.20;;
40537;SDS011;27925;41.874;12.526;2023-05-08T08:10:11;16.05;;;9.30;;
40537;SDS011;27925;41.874;12.526;2023-05-08T08:12:36;18.33;;;9.02;;
40537;SDS011;27925;41.874;12.526;2023-05-08T08:15:03;17.50;;;9.20;;
40537;SDS011;27925;41.874;12.526;2023-05-08T08:17:29;13.60;;;8.63;;
40537;SDS011;27925;41.874;12.526;2023-05-08T08:19:55;11.77;;;8.18;;
40537;SDS011;27925;41.874;12.526;2023-05-08T08:22:21;12.90;;;8.15;;
40537;SDS011;27925;41.874;12.526;2023-05-08T08:24:47;13.50;;;7.93;;
40537;SDS011;27925;41.874;12.526;2023-05-08T08:27:12;16.80;;;7.78;;
40537;SDS011;27925;41.874;12.526;2023-05-08T08:29:38;13.70;;;8.25;;
40537;SDS011;27925;41.874;12.526;2023-05-08T08:32:04;16.85;;;8.30;;
40537;SDS011;27925;41.874;12.526;2023-05-08T08:34:32;16.58;;;7.82;;
40537;SDS011;27925;41.874;12.526;2023-05-08T08:36:58;14.07;;;7.45;;
40537;SDS011;27925;41.874;12.526;2023-05-08T08:39:24;14.02;;;8.13;;
40537;SDS011;27925;41.874;12.526;2023-05-08T08:41:49;12.30;;;7.55;;
40537;SDS011;27925;41.874;12.526;2023-05-08T08:44:15;13.70;;;6.75;;
40537;SDS011;27925;41.874;12.526;2023-05-08T08:46:48;15.27;;;7.25;;
40537;SDS011;27925;41.874;12.526;2023-05-08T08:49:24;12.25;;;7.78;;
40537;SDS011;27925;41.874;12.526;2023-05-08T08:52:01;12.30;;;6.68;;
40537;SDS011;27925;41.874;12.526;2023-05-08T08:54:32;16.48;;;7.53;;
40537;SDS011;27925;41.874;12.526;2023-05-08T08:57:00;12.05;;;7.38;;
40537;SDS011;27925;41.874;12.526;2023-05-08T08:59:28;14.32;;;7.85;;
40537;SDS011;27925;41.874;12.526;2023-05-08T09:01:56;16.15;;;6.90;;
40537;SDS011;27925;41.874;12.526;2023-05-08T09:04:25;11.27;;;7.47;;
40537;SDS011;27925;41.874;12.526;2023-05-08T09:06:51;25.83;;;6.70;;
40537;SDS011;27925;41.874;12.526;2023-05-08T09:09:18;11.77;;;6.82;;
40537;SDS011;27925;41.874;12.526;2023-05-08T09:11:45;11.30;;;6.50;;
40537;SDS011;27925;41.874;12.526;2023-05-08T09:14:10;15.80;;;7.10;;
40537;SDS011;27925;41.874;12.526;2023-05-08T09:16:36;11.57;;;6.65;;
40537;SDS011;27925;41.874;12.526;2023-05-08T09:19:02;9.68;;;5.95;;
40537;SDS011;27925;41.874;12.526;2023-05-08T09:21:28;11.23;;;6.60;;
40537;SDS011;27925;41.874;12.526;2023-05-08T09:26:31;8.25;;;5.90;;
40537;SDS011;27925;41.874;12.526;2023-05-08T09:31:36;7.03;;;4.75;;
40537;SDS011;27925;41.874;12.526;2023-05-08T09:34:10;9.43;;;5.18;;
40537;SDS011;27925;41.874;12.526;2023-05-08T09:36:46;7.00;;;4.70;;
40537;SDS011;27925;41.874;12.526;2023-05-08T09:39:12;9.15;;;5.30;;
40537;SDS011;27925;41.874;12.526;2023-05-08T09:42:02;8.75;;;4.07;;
40537;SDS011;27925;41.874;12.526;2023-05-08T09:44:44;12.40;;;4.90;;
40537;SDS011;27925;41.874;12.526;2023-05-08T09:47:21;18.10;;;5.43;;
40537;SDS011;27925;41.874;12.526;2023-05-08T09:52:30;17.38;;;4.60;;
40537;SDS011;27925;41.874;12.526;2023-05-08T09:54:57;17.85;;;4.20;;
40537;SDS011;27925;41.874;12.526;2023-05-08T09:57:25;13.98;;;5.10;;
40537;SDS011;27925;41.874;12.526;2023-05-08T09:59:58;18.65;;;4.60;;
40537;SDS011;27925;41.874;12.526;2023-05-08T10:02:27;11.57;;;3.78;;
40537;SDS011;27925;41.874;12.526;2023-05-08T10:04:53;10.13;;;3.80;;
40537;SDS011;27925;41.874;12.526;2023-05-08T10:09:59;7.85;;;3.75;;
40537;SDS011;27925;41.874;12.526;2023-05-08T10:12:26;9.75;;;4.10;;
40537;SDS011;27925;41.874;12.526;2023-05-08T10:14:52;10.43;;;4.35;;
40537;SDS011;27925;41.874;12.526;2023-05-08T10:17:20;14.02;;;4.93;;
40537;SDS011;27925;41.874;12.526;2023-05-08T10:19:51;8.32;;;4.53;;
40537;SDS011;27925;41.874;12.526;2023-05-08T10:22:24;12.57;;;4.28;;
40537;SDS011;27925;41.874;12.526;2023-05-08T10:24:51;10.52;;;4.28;;
40537;SDS011;27925;41.874;12.526;2023-05-08T10:27:22;8.45;;;4.25;;
40537;SDS011;27925;41.874;12.526;2023-05-08T10:32:44;8.80;;;3.60;;
40537;SDS011;27925;41.874;12.526;2023-05-08T10:35:12;9.60;;;4.20;;
40537;SDS011;27925;41.874;12.526;2023-05-08T10:37:38;12.73;;;5.00;;
40537;SDS011;27925;41.874;12.526;2023-05-08T10:40:06;10.25;;;4.70;;
40537;SDS011;27925;41.874;12.526;2023-05-08T10:42:33;13.52;;;5.05;;
40537;SDS011;27925;41.874;12.526;2023-05-08T10:45:00;15.95;;;4.95;;
40537;SDS011;27925;41.874;12.526;2023-05-08T10:50:36;13.85;;;4.53;;
40537;SDS011;27925;41.874;12.526;2023-05-08T10:56:14;14.40;;;5.20;;
40537;SDS011;27925;41.874;12.526;2023-05-08T10:58:40;20.85;;;4.75;;
40537;SDS011;27925;41.874;12.526;2023-05-08T11:03:32;9.50;;;4.07;;
40537;SDS011;27925;41.874;12.526;2023-05-08T11:06:06;10.13;;;4.07;;
40537;SDS011;27925;41.874;12.526;2023-05-08T11:08:33;8.63;;;3.80;;
40537;SDS011;27925;41.874;12.526;2023-05-08T11:11:34;7.70;;;4.38;;
40537;SDS011;27925;41.874;12.526;2023-05-08T11:19:24;10.77;;;4.35;;
40537;SDS011;27925;41.874;12.526;2023-05-08T11:24:56;10.93;;;4.15;;
40537;SDS011;27925;41.874;12.526;2023-05-08T11:38:19;9.85;;;4.28;;
40537;SDS011;27925;41.874;12.526;2023-05-08T11:43:45;10.00;;;4.15;;
40537;SDS011;27925;41.874;12.526;2023-05-08T11:46:24;10.02;;;4.90;;
40537;SDS011;27925;41.874;12.526;2023-05-08T11:49:11;14.07;;;6.22;;
40537;SDS011;27925;41.874;12.526;2023-05-08T11:51:38;9.20;;;5.00;;
40537;SDS011;27925;41.874;12.526;2023-05-08T11:54:08;10.85;;;5.57;;
40537;SDS011;27925;41.874;12.526;2023-05-08T11:56:37;10.02;;;5.53;;
40537;SDS011;27925;41.874;12.526;2023-05-08T11:59:06;16.17;;;8.20;;
40537;SDS011;27925;41.874;12.526;2023-05-08T12:01:35;14.32;;;7.25;;
40537;SDS011;27925;41.874;12.526;2023-05-08T12:04:02;11.18;;;6.00;;
40537;SDS011;27925;41.874;12.526;2023-05-08T12:06:29;12.57;;;5.97;;
40537;SDS011;27925;41.874;12.526;2023-05-08T12:08:56;10.10;;;5.93;;
40537;SDS011;27925;41.874;12.526;2023-05-08T12:11:23;11.48;;;6.07;;
40537;SDS011;27925;41.874;12.526;2023-05-08T12:13:49;11.98;;;5.72;;
40537;SDS011;27925;41.874;12.526;2023-05-08T12:16:16;10.55;;;5.82;;
40537;SDS011;27925;41.874;12.526;2023-05-08T12:18:41;12.60;;;6.55;;
40537;SDS011;27925;41.874;12.526;2023-05-08T12:21:08;13.32;;;6.05;;
40537;SDS011;27925;41.874;12.526;2023-05-08T12:23:35;17.00;;;6.65;;
40537;SDS011;27925;41.874;12.526;2023-05-08T12:26:01;12.10;;;6.22;;
40537;SDS011;27925;41.874;12.526;2023-05-08T12:28:27;16.40;;;6.97;;
40537;SDS011;27925;41.874;12.526;2023-05-08T12:30:56;14.82;;;6.47;;
40537;SDS011;27925;41.874;12.526;2023-05-08T12:33:22;15.18;;;7.32;;
40537;SDS011;27925;41.874;12.526;2023-05-08T12:35:49;12.57;;;7.43;;
40537;SDS011;27925;41.874;12.526;2023-05-08T12:38:15;12.95;;;5.85;;
40537;SDS011;27925;41.874;12.526;2023-05-08T12:40:41;12.68;;;5.93;;
40537;SDS011;27925;41.874;12.526;2023-05-08T12:43:13;14.45;;;5.60;;
40537;SDS011;27925;41.874;12.526;2023-05-08T12:45:39;13.43;;;6.15;;
40537;SDS011;27925;41.874;12.526;2023-05-08T12:50:37;13.57;;;6.38;;
40537;SDS011;27925;41.874;12.526;2023-05-08T12:53:08;11.60;;;6.10;;
40537;SDS011;27925;41.874;12.526;2023-05-08T12:55:35;11.80;;;6.65;;
40537;SDS011;27925;41.874;12.526;2023-05-08T12:58:09;14.70;;;5.95;;
40537;SDS011;27925;41.874;12.526;2023-05-08T13:03:12;13.25;;;6.70;;
40537;SDS011;27925;41.874;12.526;2023-05-08T13:05:45;12.48;;;7.22;;
40537;SDS011;27925;41.874;12.526;2023-05-08T13:08:11;12.35;;;7.03;;
40537;SDS011;27925;41.874;12.526;2023-05-08T13:10:46;15.48;;;9.23;;
40537;SDS011;27925;41.874;12.526;2023-05-08T13:13:22;11.95;;;6.82;;
40537;SDS011;27925;41.874;12.526;2023-05-08T13:15:50;11.75;;;6.78;;
40537;SDS011;27925;41.874;12.526;2023-05-08T13:18:17;13.95;;;7.20;;
40537;SDS011;27925;41.874;12.526;2023-05-08T13:20:44;13.40;;;7.22;;
40537;SDS011;27925;41.874;12.526;2023-05-08T13:23:10;13.18;;;7.07;;
40537;SDS011;27925;41.874;12.526;2023-05-08T13:25:37;12.93;;;7.97;;
40537;SDS011;27925;41.874;12.526;2023-05-08T13:28:03;16.10;;;7.35;;
40537;SDS011;27925;41.874;12.526;2023-05-08T13:30:30;12.55;;;8.02;;
40537;SDS011;27925;41.874;12.526;2023-05-08T13:32:56;15.77;;;7.80;;
40537;SDS011;27925;41.874;12.526;2023-05-08T13:35:22;14.90;;;7.78;;
40537;SDS011;27925;41.874;12.526;2023-05-08T13:37:48;12.82;;;7.45;;
40537;SDS011;27925;41.874;12.526;2023-05-08T13:40:15;13.95;;;7.60;;
40537;SDS011;27925;41.874;12.526;2023-05-08T13:42:41;17.60;;;8.10;;
40537;SDS011;27925;41.874;12.526;2023-05-08T13:45:07;19.05;;;7.75;;
40537;SDS011;27925;41.874;12.526;2023-05-08T13:47:43;14.48;;;7.00;;
40537;SDS011;27925;41.874;12.526;2023-05-08T13:50:10;16.13;;;7.78;;
40537;SDS011;27925;41.874;12.526;2023-05-08T13:52:37;13.48;;;7.07;;
40537;SDS011;27925;41.874;12.526;2023-05-08T13:55:06;14.48;;;8.05;;
40537;SDS011;27925;41.874;12.526;2023-05-08T13:57:33;18.42;;;7.78;;
40537;SDS011;27925;41.874;12.526;2023-05-08T13:59:59;15.85;;;8.13;;
40537;SDS011;27925;41.874;12.526;2023-05-08T14:02:25;10.73;;;7.15;;
40537;SDS011;27925;41.874;12.526;2023-05-08T14:04:51;15.00;;;7.78;;
40537;SDS011;27925;41.874;12.526;2023-05-08T14:07:17;15.20;;;7.60;;
40537;SDS011;27925;41.874;12.526;2023-05-08T14:09:43;13.63;;;6.85;;
40537;SDS011;27925;41.874;12.526;2023-05-08T14:12:12;13.40;;;7.90;;
40537;SDS011;27925;41.874;12.526;2023-05-08T14:14:38;13.82;;;7.43;;
40537;SDS011;27925;41.874;12.526;2023-05-08T14:17:03;11.98;;;7.63;;
40537;SDS011;27925;41.874;12.526;2023-05-08T14:19:29;15.43;;;7.47;;
40537;SDS011;27925;41.874;12.526;2023-05-08T14:21:55;16.48;;;8.38;;
40537;SDS011;27925;41.874;12.526;2023-05-08T14:24:21;23.83;;;11.10;;
40537;SDS011;27925;41.874;12.526;2023-05-08T14:26:47;19.75;;;14.25;;
40537;SDS011;27925;41.874;12.526;2023-05-08T14:29:12;20.40;;;13.77;;
40537;SDS011;27925;41.874;12.526;2023-05-08T14:31:39;22.55;;;13.10;;
40537;SDS011;27925;41.874;12.526;2023-05-08T14:34:05;20.92;;;12.90;;
40537;SDS011;27925;41.874;12.526;2023-05-08T14:36:30;25.63;;;15.82;;
40537;SDS011;27925;41.874;12.526;2023-05-08T14:38:56;26.48;;;15.60;;
40537;SDS011;27925;41.874;12.526;2023-05-08T14:41:26;25.85;;;15.63;;
40537;SDS011;27925;41.874;12.526;2023-05-08T14:43:52;21.33;;;13.13;;
40537;SDS011;27925;41.874;12.526;2023-05-08T14:46:18;24.05;;;15.80;;
40537;SDS011;27925;41.874;12.526;2023-05-08T14:48:44;25.38;;;13.80;;
40537;SDS011;27925;41.874;12.526;2023-05-08T14:51:10;18.52;;;12.00;;
40537;SDS011;27925;41.874;12.526;2023-05-08T14:53:36;15.02;;;10.70;;
40537;SDS011;27925;41.874;12.526;2023-05-08T14:56:02;18.75;;;12.13;;
40537;SDS011;27925;41.874;12.526;2023-05-08T14:58:28;17.58;;;11.70;;
40537;SDS011;27925;41.874;12.526;2023-05-08T15:00:53;23.70;;;14.85;;
40537;SDS011;27925;41.874;12.526;2023-05-08T15:03:19;20.38;;;13.60;;
40537;SDS011;27925;41.874;12.526;2023-05-08T15:05:45;18.00;;;11.93;;
40537;SDS011;27925;41.874;12.526;2023-05-08T15:08:11;16.55;;;11.18;;
40537;SDS011;27925;41.874;12.526;2023-05-08T15:10:37;17.67;;;11.63;;
40537;SDS011;27925;41.874;12.526;2023-05-08T15:13:03;19.38;;;10.77;;
40537;SDS011;27925;41.874;12.526;2023-05-08T15:15:29;16.20;;;10.52;;
40537;SDS011;27925;41.874;12.526;2023-05-08T15:17:55;15.63;;;11.35;;
40537;SDS011;27925;41.874;12.526;2023-05-08T15:20:20;17.23;;;10.93;;
40537;SDS011;27925;41.874;12.526;2023-05-08T15:22:46;16.85;;;10.45;;
40537;SDS011;27925;41.874;12.526;2023-05-08T15:25:11;14.40;;;10.30;;
40537;SDS011;27925;41.874;12.526;2023-05-08T15:27:37;16.25;;;11.02;;
40537;SDS011;27925;41.874;12.526;2023-05-08T15:30:03;17.65;;;10.13;;
40537;SDS011;27925;41.874;12.526;2023-05-08T15:32:29;19.48;;;11.40;;
40537;SDS011;27925;41.874;12.526;2023-05-08T15:34:55;16.30;;;10.13;;
40537;SDS011;27925;41.874;12.526;2023-05-08T15:37:21;14.45;;;10.82;;
40537;SDS011;27925;41.874;12.526;2023-05-08T15:39:46;18.33;;;10.88;;
40537;SDS011;27925;41.874;12.526;2023-05-08T15:42:13;15.77;;;11.00;;
40537;SDS011;27925;41.874;12.526;2023-05-08T15:44:39;19.77;;;13.65;;
40537;SDS011;27925;41.874;12.526;2023-05-08T15:47:05;18.83;;;13.00;;
40537;SDS011;27925;41.874;12.526;2023-05-08T15:49:30;16.63;;;11.45;;
40537;SDS011;27925;41.874;12.526;2023-05-08T15:51:56;17.77;;;10.65;;
40537;SDS011;27925;41.874;12.526;2023-05-08T15:54:22;15.80;;;10.02;;
40537;SDS011;27925;41.874;12.526;2023-05-08T15:56:47;14.40;;;9.95;;
40537;SDS011;27925;41.874;12.526;2023-05-08T15:59:13;14.18;;;9.95;;
40537;SDS011;27925;41.874;12.526;2023-05-08T16:01:39;21.90;;;16.40;;
40537;SDS011;27925;41.874;12.526;2023-05-08T16:04:06;14.70;;;9.98;;
40537;SDS011;27925;41.874;12.526;2023-05-08T16:06:32;16.30;;;10.77;;
40537;SDS011;27925;41.874;12.526;2023-05-08T16:08:58;18.15;;;10.32;;
40537;SDS011;27925;41.874;12.526;2023-05-08T16:11:24;20.48;;;9.52;;
40537;SDS011;27925;41.874;12.526;2023-05-08T16:13:53;15.02;;;9.15;;
40537;SDS011;27925;41.874;12.526;2023-05-08T16:16:19;21.30;;;10.45;;
40537;SDS011;27925;41.874;12.526;2023-05-08T16:18:45;14.43;;;9.05;;
40537;SDS011;27925;41.874;12.526;2023-05-08T16:21:10;12.93;;;9.30;;
40537;SDS011;27925;41.874;12.526;2023-05-08T16:23:37;14.85;;;9.68;;
40537;SDS011;27925;41.874;12.526;2023-05-08T16:26:03;16.55;;;10.45;;
40537;SDS011;27925;41.874;12.526;2023-05-08T16:28:28;13.13;;;9.68;;
40537;SDS011;27925;41.874;12.526;2023-05-08T16:30:54;13.32;;;8.30;;
40537;SDS011;27925;41.874;12.526;2023-05-08T16:33:20;23.67;;;10.45;;
40537;SDS011;27925;41.874;12.526;2023-05-08T16:35:45;17.83;;;10.02;;
40537;SDS011;27925;41.874;12.526;2023-05-08T16:38:11;16.42;;;9.25;;
40537;SDS011;27925;41.874;12.526;2023-05-08T21:42:13;9.75;;;7.72;;
40537;SDS011;27925;41.874;12.526;2023-05-08T21:44:39;11.10;;;8.10;;
40537;SDS011;27925;41.874;12.526;2023-05-08T21:47:05;10.85;;;7.90;;
40537;SDS011;27925;41.874;12.526;2023-05-08T21:49:31;12.80;;;8.73;;
40537;SDS011;27925;41.874;12.526;2023-05-08T21:51:56;13.73;;;9.30;;
40537;SDS011;27925;41.874;12.526;2023-05-08T21:54:22;13.07;;;8.75;;
40537;SDS011;27925;41.874;12.526;2023-05-08T21:56:48;12.52;;;8.35;;
40537;SDS011;27925;41.874;12.526;2023-05-08T21:59:14;13.20;;;9.27;;
40537;SDS011;27925;41.874;12.526;2023-05-08T22:01:40;11.18;;;9.18;;
40537;SDS011;27925;41.874;12.526;2023-05-08T22:04:06;13.85;;;9.23;;
40537;SDS011;27925;41.874;12.526;2023-05-08T22:06:31;16.25;;;8.63;;
40537;SDS011;27925;41.874;12.526;2023-05-08T22:08:57;15.95;;;10.05;;
40537;SDS011;27925;41.874;12.526;2023-05-08T22:11:23;13.43;;;9.90;;
40537;SDS011;27925;41.874;12.526;2023-05-08T22:13:49;13.65;;;9.20;;
40537;SDS011;27925;41.874;12.526;2023-05-08T22:16:16;13.25;;;8.98;;
40537;SDS011;27925;41.874;12.526;2023-05-08T22:18:41;14.10;;;10.15;;
40537;SDS011;27925;41.874;12.526;2023-05-08T22:21:07;14.40;;;9.32;;
40537;SDS011;27925;41.874;12.526;2023-05-08T22:23:33;15.85;;;9.40;;
40537;SDS011;27925;41.874;12.526;2023-05-08T22:25:59;13.60;;;9.35;;
40537;SDS011;27925;41.874;12.526;2023-05-08T22:28:24;16.75;;;9.88;;
40537;SDS011;27925;41.874;12.526;2023-05-08T22:30:51;13.20;;;9.55;;
40537;SDS011;27925;41.874;12.526;2023-05-08T22:33:17;14.30;;;10.15;;
40537;SDS011;27925;41.874;12.526;2023-05-08T22:35:42;14.85;;;10.05;;
40537;SDS011;27925;41.874;12.526;2023-05-08T22:38:08;11.25;;;9.02;;
40537;SDS011;27925;41.874;12.526;2023-05-08T22:40:33;16.70;;;9.80;;
40537;SDS011;27925;41.874;12.526;2023-05-08T22:42:59;12.55;;;9.50;;
40537;SDS011;27925;41.874;12.526;2023-05-08T22:45:25;13.10;;;9.82;;
40537;SDS011;27925;41.874;12.526;2023-05-08T22:47:51;14.20;;;9.15;;
40537;SDS011;27925;41.874;12.526;2023-05-08T22:50:17;12.50;;;9.50;;
40537;SDS011;27925;41.874;12.526;2023-05-08T22:52:43;13.10;;;9.75;;
40537;SDS011;27925;41.874;12.526;2023-05-08T22:55:09;12.18;;;8.93;;
40537;SDS011;27925;41.874;12.526;2023-05-08T22:57:35;13.25;;;9.32;;
40537;SDS011;27925;41.874;12.526;2023-05-08T23:00:00;12.48;;;9.35;;
40537;SDS011;27925;41.874;12.526;2023-05-08T23:02:32;12.57;;;8.85;;
40537;SDS011;27925;41.874;12.526;2023-05-08T23:04:59;15.30;;;11.65;;
40537;SDS011;27925;41.874;12.526;2023-05-08T23:07:26;12.43;;;9.30;;
40537;SDS011;27925;41.874;12.526;2023-05-08T23:09:52;13.23;;;9.27;;
40537;SDS011;27925;41.874;12.526;2023-05-08T23:12:18;15.23;;;9.65;;
40537;SDS011;27925;41.874;12.526;2023-05-08T23:14:44;12.77;;;8.93;;
40537;SDS011;27925;41.874;12.526;2023-05-08T23:17:10;15.35;;;9.60;;
40537;SDS011;27925;41.874;12.526;2023-05-08T23:19:38;11.75;;;9.90;;
40537;SDS011;27925;41.874;12.526;2023-05-08T23:22:04;13.35;;;9.25;;
40537;SDS011;27925;41.874;12.526;2023-05-08T23:24:33;12.93;;;8.88;;
40537;SDS011;27925;41.874;12.526;2023-05-08T23:26:59;13.95;;;9.52;;